Time;durP1;ratioP1;P1;durP2;ratioP2;P2;SDS_P1;SDS_P2;PMS_P1;PMS_P2;Temp;Humidity;BMP_temperature;BMP_pressure;BME280_temperature;BME280_humidity;BME280_pressure;Samples;Min_cycle;Max_cycle;Signal;HPM_P1;HPM_P2
2022/08/27 00:05:13;;;;;;;;;;;;;;;20.99;78.63;99572.16;1073437;54;19962;-77
2022/08/27 00:06:16;;;;;;;;;;;;;;;20.94;79.48;99571.97;1083945;54;19946;-78
2022/08/27 00:07:21;;;;;;;;;;;;;;;20.86;79.96;99575.84;1083930;54;19977;-79
2022/08/27 00:08:22;;;;;;;;;;;;;;;20.78;81.00;99576.13;1084126;54;19939;-77
2022/08/27 00:09:26;;;;;;;;;;;;;;;20.77;80.96;99569.03;1083772;54;19950;-78
2022/08/27 00:10:34;;;;;;;;;;;;;;;20.75;81.21;99571.13;1083849;54;19943;-78
2022/08/27 00:11:39;;;;;;;;;;;;;;;20.72;81.36;99567.78;1084018;54;19950;-78
2022/08/27 00:12:40;;;;;;;;;;;;;;;20.71;81.80;99568.81;1083780;54;19945;-77
2022/08/27 00:13:45;;;;;;;;;;;;;;;20.77;81.42;99563.59;1083743;54;19946;-78
2022/08/27 00:14:59;;;;;;;;;;;;;;;20.79;81.18;99561.47;1083977;54;19939;-78
2022/08/27 00:16:03;;;;;;;;;;;;;;;20.73;81.51;99564.03;1084296;46;19950;-77
2022/08/27 00:17:05;;;;;;;;;;;;;;;20.83;80.53;99565.41;1083902;54;19947;-77
2022/08/27 00:18:09;;;;;;;;;;;;;;;20.85;80.42;99564.13;1083849;54;19969;-77
2022/08/27 00:19:11;;;;;;;;;;;;;;;20.89;80.52;99572.66;1084211;39;20461;-78
2022/08/27 00:20:27;;;;;;;;;;;;;;;20.89;80.40;99575.38;1083838;54;19939;-77
2022/08/27 00:21:31;;;;;;;;;;;;;;;20.75;81.50;99571.13;1083582;54;19993;-77
2022/08/27 00:23:57;;;;;;;;;;;;;;;20.77;81.37;99563.59;1083652;54;19963;-78
2022/08/27 00:24:58;;;;;;;;;;;;;;;20.67;81.87;99564.91;1084239;39;20338;-77
2022/08/27 00:26:06;;;;;;;;;;;;;;;20.68;82.05;99558.44;1084130;54;19951;-77
2022/08/27 00:27:07;;;;;;;;;;;;;;;20.75;81.38;99560.28;1084043;54;19946;-78
2022/08/27 00:28:19;;;;;;;;;;;;;;;20.78;81.62;99560.66;1083989;46;19951;-79
2022/08/27 00:29:21;;;;;;;;;;;;;;;20.71;81.98;99562.56;1083973;54;19939;-78
2022/08/27 00:35:03;;;;;;;;;;;;;;;20.67;83.22;99564.91;1083518;54;19939;-75
2022/08/27 00:36:08;;;;;;;;;;;;;;;20.66;82.98;99552.38;1083785;54;19951;-77
2022/08/27 00:37:22;;;;;;;;;;;;;;;20.75;82.22;99563.00;1083928;54;19939;-78
2022/08/27 00:38:24;;;;;;;;;;;;;;;20.73;82.24;99555.03;1083841;54;20409;-78
2022/08/27 00:39:28;;;;;;;;;;;;;;;20.71;82.57;99555.25;1083819;54;19977;-77
2022/08/27 00:40:30;;;;;;;;;;;;;;;20.73;82.77;99549.59;1083814;54;19973;-78
2022/08/27 00:43:11;;;;;;;;;;;;;;;20.69;82.95;99554.63;1083741;54;19953;-76
2022/08/27 00:44:12;;;;;;;;;;;;;;;20.74;82.35;99554.00;1083683;54;19946;-77
2022/08/27 00:45:17;;;;;;;;;;;;;;;20.70;82.83;99553.59;1083972;54;20378;-78
2022/08/27 00:46:21;;;;;;;;;;;;;;;20.68;83.03;99555.72;1083612;54;19977;-79
2022/08/27 00:47:26;;;;;;;;;;;;;;;20.56;84.23;99557.50;1084570;54;19939;-77
2022/08/27 00:48:35;;;;;;;;;;;;;;;20.60;83.58;99553.25;1083958;47;20445;-78
2022/08/27 00:49:42;;;;;;;;;;;;;;;20.70;82.97;99550.06;1083316;54;19945;-77
2022/08/27 00:50:45;;;;;;;;;;;;;;;20.73;82.78;99553.19;1083771;54;19945;-77
2022/08/27 00:51:52;;;;;;;;;;;;;;;20.77;82.75;99552.75;1083824;54;19939;-76
2022/08/27 00:52:58;;;;;;;;;;;;;;;20.74;83.08;99564.84;1083754;54;19969;-77
2022/08/27 00:54:02;;;;;;;;;;;;;;;20.62;83.85;99556.59;1083676;54;20381;-77
2022/08/27 00:55:07;;;;;;;;;;;;;;;20.66;83.50;99551.53;1083704;54;19939;-77
2022/08/27 00:56:14;;;;;;;;;;;;;;;20.65;83.42;99550.72;1083738;54;19973;-76
2022/08/27 00:57:16;;;;;;;;;;;;;;;20.63;83.65;99558.25;1083731;47;20433;-77
2022/08/27 00:58:31;;;;;;;;;;;;;;;20.69;83.34;99551.91;1083857;47;20459;-77
2022/08/27 00:59:32;;;;;;;;;;;;;;;20.72;83.13;99551.47;1083704;54;19961;-78
2022/08/27 01:00:36;;;;;;;;;;;;;;;20.77;82.70;99552.75;1083694;54;19961;-79
2022/08/27 01:02:17;;;;;;;;;;;;;;;20.77;82.91;99547.31;1083879;54;19943;-77
2022/08/27 01:03:01;;;;;;;;;;;;;;;20.70;82.98;99548.16;1083696;54;19947;-78
2022/08/27 01:04:04;;;;;;;;;;;;;;;20.70;83.60;99550.88;1083524;54;19939;-77
2022/08/27 01:05:20;;;;;;;;;;;;;;;20.67;83.14;99548.63;1083843;54;19965;-77
2022/08/27 01:06:22;;;;;;;;;;;;;;;20.67;83.41;99547.78;1083864;54;19939;-77
2022/08/27 01:07:28;;;;;;;;;;;;;;;20.74;82.86;99540.41;1083830;54;19939;-78
2022/08/27 01:08:33;;;;;;;;;;;;;;;20.82;82.65;99553.72;1083857;54;19938;-77
2022/08/27 01:09:39;;;;;;;;;;;;;;;20.85;82.30;99552.44;1083834;54;20396;-76
2022/08/27 01:10:41;;;;;;;;;;;;;;;20.83;82.25;99547.22;1083766;54;19966;-77
2022/08/27 01:11:59;;;;;;;;;;;;;;;20.80;82.33;99544.97;1083924;54;19938;-77
2022/08/27 01:13:01;;;;;;;;;;;;;;;20.87;81.86;99542.19;1083731;54;19947;-78
2022/08/27 01:14:05;;;;;;;;;;;;;;;20.93;81.22;99552.16;1083706;54;20034;-76
2022/08/27 01:15:09;;;;;;;;;;;;;;;20.99;80.98;99548.50;1083694;54;20448;-76
2022/08/27 01:17:36;;;;;;;;;;;;;;;21.07;80.68;99541.97;1083826;54;19965;-76
2022/08/27 01:18:46;;;;;;;;;;;;;;;21.03;80.95;99547.03;1083709;54;19965;-76
2022/08/27 01:19:52;;;;;;;;;;;;;;;21.04;80.67;99543.25;1084090;54;20038;-77
2022/08/27 01:36:34;;;;;;;;;;;;;;;20.74;82.56;99537.69;1079066;54;19953;-78
2022/08/27 01:37:38;;;;;;;;;;;;;;;20.69;82.70;99535.63;1085147;54;19961;-79
2022/08/27 01:40:01;;;;;;;;;;;;;;;20.66;83.58;99535.25;1085451;54;19970;-77
2022/08/27 01:41:05;;;;;;;;;;;;;;;20.70;83.25;99539.19;1085594;54;19945;-79
2022/08/27 01:42:10;;;;;;;;;;;;;;;20.75;82.55;99538.53;1085489;54;19939;-78
2022/08/27 01:43:11;;;;;;;;;;;;;;;20.68;83.51;99534.00;1085488;54;19950;-78
2022/08/27 01:44:16;;;;;;;;;;;;;;;20.71;83.31;99533.53;1085322;54;19995;-78
2022/08/27 01:45:23;;;;;;;;;;;;;;;20.68;83.26;99534.00;1084350;54;20030;-77
2022/08/27 01:46:26;;;;;;;;;;;;;;;20.72;83.09;99537.91;1084526;54;19946;-77
2022/08/27 01:47:30;;;;;;;;;;;;;;;20.81;83.20;99540.34;1084401;54;19938;-77
2022/08/27 01:48:31;;;;;;;;;;;;;;;20.82;82.61;99537.44;1084404;54;19966;-79
2022/08/27 01:49:36;;;;;;;;;;;;;;;20.82;82.20;99534.72;1084322;39;20375;-77
2022/08/27 01:50:46;;;;;;;;;;;;;;;20.86;82.56;99544.06;1083887;54;19943;-80
2022/08/27 01:51:48;;;;;;;;;;;;;;;20.93;82.37;99541.28;1083829;54;19946;-78
2022/08/27 01:52:58;;;;;;;;;;;;;;;20.97;82.42;99550.63;1084046;54;20413;-80
2022/08/27 01:54:00;;;;;;;;;;;;;;;20.83;82.64;99551.84;1083745;54;19970;-80
2022/08/27 01:55:11;;;;;;;;;;;;;;;20.76;83.17;99546.47;1084069;39;20435;-78
2022/08/27 01:56:13;;;;;;;;;;;;;;;20.71;83.35;99547.09;1084151;54;19963;-78
2022/08/27 01:57:17;;;;;;;;;;;;;;;20.62;83.96;99545.72;1083579;54;19946;-78
2022/08/27 01:58:20;;;;;;;;;;;;;;;20.65;83.94;99545.28;1084111;39;20537;-79
2022/08/27 01:59:26;;;;;;;;;;;;;;;20.66;83.90;99538.81;1083574;54;19969;-77
2022/08/27 02:00:29;;;;;;;;;;;;;;;20.56;84.07;99547.44;1083096;54;19958;-78
2022/08/27 02:01:34;;;;;;;;;;;;;;;20.49;84.43;99541.25;1083048;54;19947;-78
2022/08/27 02:02:41;;;;;;;;;;;;;;;20.51;84.78;99541.88;1083297;54;19946;-77
2022/08/27 02:03:47;;;;;;;;;;;;;;;20.63;85.04;99547.38;1083120;54;19977;-78
2022/08/27 02:04:51;;;;;;;;;;;;;;;20.53;84.84;99542.47;1083117;54;20442;-77
2022/08/27 02:05:55;;;;;;;;;;;;;;;20.46;84.82;99541.69;1083166;54;19953;-77
2022/08/27 02:06:59;;;;;;;;;;;;;;;20.45;85.23;99556.31;1082937;54;19969;-76
2022/08/27 02:08:03;;;;;;;;;;;;;;;20.40;85.29;99545.28;1083046;54;19946;-78
2022/08/27 02:09:07;;;;;;;;;;;;;;;20.43;85.95;99553.00;1082890;54;19954;-78
2022/08/27 02:10:11;;;;;;;;;;;;;;;20.41;85.91;99550.50;1083116;54;19969;-77
2022/08/27 02:11:15;;;;;;;;;;;;;;;20.45;85.78;99550.06;1083217;54;19981;-76
2022/08/27 02:12:16;;;;;;;;;;;;;;;20.37;86.27;99543.88;1083588;54;19947;-77
2022/08/27 02:13:20;;;;;;;;;;;;;;;20.39;86.16;99546.34;1084083;39;20356;-77
2022/08/27 02:14:22;;;;;;;;;;;;;;;20.47;85.61;99532.50;1083700;54;19954;-78
2022/08/27 02:15:27;;;;;;;;;;;;;;;20.51;85.48;99538.31;1084036;54;19966;-77
2022/08/27 02:16:29;;;;;;;;;;;;;;;20.41;86.17;99534.22;1085300;54;19951;-78
2022/08/27 02:17:33;;;;;;;;;;;;;;;20.38;86.36;99534.66;1085305;46;20034;-77
2022/08/27 02:18:35;;;;;;;;;;;;;;;20.34;87.00;99536.16;1085125;54;19950;-77
2022/08/27 02:20:05;;;;;;;;;;;;;;;20.45;86.13;99537.31;1084514;54;19947;-79
2022/08/27 02:21:07;;;;;;;;;;;;;;;20.58;85.44;99536.38;1084469;54;19958;-77
2022/08/27 02:22:12;;;;;;;;;;;;;;;20.43;85.40;99542.16;1084482;54;20050;-79
2022/08/27 02:23:17;;;;;;;;;;;;;;;20.40;85.76;99542.59;1084253;54;19969;-77
2022/08/27 02:24:21;;;;;;;;;;;;;;;20.37;85.77;99537.59;1084272;47;19943;-78
2022/08/27 02:25:31;;;;;;;;;;;;;;;20.41;85.45;99546.97;1084112;54;20034;-78
2022/08/27 02:26:35;;;;;;;;;;;;;;;20.42;85.85;99546.72;1083231;54;19962;-78
2022/08/27 02:27:37;;;;;;;;;;;;;;;20.41;85.56;99538.81;1082825;54;20065;-78
2022/08/27 02:28:40;;;;;;;;;;;;;;;20.35;85.96;99542.44;1083121;54;19961;-77
2022/08/27 02:29:42;;;;;;;;;;;;;;;20.35;86.05;99551.38;1083140;54;19938;-76
2022/08/27 02:30:46;;;;;;;;;;;;;;;20.33;85.99;99544.53;1083021;54;20047;-77
2022/08/27 02:31:49;;;;;;;;;;;;;;;20.29;85.98;99544.16;1083082;54;19950;-77
2022/08/27 02:32:53;;;;;;;;;;;;;;;20.31;86.37;99543.91;1083194;54;20490;-77
2022/08/27 02:33:55;;;;;;;;;;;;;;;20.29;86.45;99544.16;1084353;39;20356;-79
2022/08/27 02:34:59;;;;;;;;;;;;;;;20.30;86.22;99542.25;1083122;54;19961;-78
2022/08/27 02:36:05;;;;;;;;;;;;;;;20.37;85.94;99543.88;1083136;54;19943;-77
2022/08/27 02:37:06;;;;;;;;;;;;;;;20.38;85.52;99540.09;1082767;54;20485;-78
2022/08/27 02:38:11;;;;;;;;;;;;;;;20.32;85.65;99545.56;1083117;54;19947;-77
2022/08/27 02:39:15;;;;;;;;;;;;;;;20.31;86.00;99544.72;1083964;31;20403;-77
2022/08/27 02:40:24;;;;;;;;;;;;;;;20.29;86.16;99546.84;1083251;54;19981;-77
2022/08/27 02:41:28;;;;;;;;;;;;;;;20.29;86.06;99548.72;1083634;54;19970;-80
2022/08/27 02:42:30;;;;;;;;;;;;;;;20.30;86.02;99548.53;1083583;54;20063;-78
2022/08/27 02:43:34;;;;;;;;;;;;;;;20.23;86.57;99548.56;1083446;54;19969;-78
2022/08/27 02:44:36;;;;;;;;;;;;;;;20.24;86.38;99546.66;1083664;54;19939;-79
2022/08/27 02:45:41;;;;;;;;;;;;;;;20.31;86.62;99546.63;1083389;54;20433;-80
2022/08/27 02:46:42;;;;;;;;;;;;;;;20.33;85.67;99548.06;1083732;54;19981;-79
2022/08/27 02:47:46;;;;;;;;;;;;;;;20.30;85.93;99543.09;1083533;54;19946;-79
2022/08/27 02:48:49;;;;;;;;;;;;;;;20.37;85.71;99545.72;1083459;54;20453;-79
2022/08/27 02:49:53;;;;;;;;;;;;;;;20.36;85.73;99536.78;1083503;54;19947;-80
2022/08/27 02:50:54;;;;;;;;;;;;;;;20.38;85.32;99544.69;1083567;54;19970;-79
2022/08/27 02:51:58;;;;;;;;;;;;;;;20.32;85.63;99540.16;1083170;54;19954;-79
2022/08/27 02:53:01;;;;;;;;;;;;;;;20.25;84.98;99543.75;1083689;54;19950;-78
2022/08/27 02:54:07;;;;;;;;;;;;;;;20.34;85.25;99533.44;1083295;54;20465;-79
2022/08/27 02:55:12;;;;;;;;;;;;;;;20.36;85.00;99536.78;1083437;54;19947;-80
2022/08/27 02:56:17;;;;;;;;;;;;;;;20.42;85.02;99530.44;1083512;54;19939;-78
2022/08/27 02:57:18;;;;;;;;;;;;;;;20.49;84.41;99535.00;1083037;54;20460;-78
2022/08/27 02:58:22;;;;;;;;;;;;;;;20.44;84.33;99532.97;1083287;54;20041;-81
2022/08/27 02:59:23;;;;;;;;;;;;;;;20.46;84.02;99536.25;1083459;54;19947;-79
2022/08/27 03:00:27;;;;;;;;;;;;;;;20.38;85.08;99540.09;1083074;54;19957;-78
2022/08/27 03:01:31;;;;;;;;;;;;;;;20.38;85.13;99537.38;1083506;54;19946;-79
2022/08/27 03:02:32;;;;;;;;;;;;;;;20.41;84.77;99534.22;1083428;54;19946;-77
2022/08/27 03:03:36;;;;;;;;;;;;;;;20.37;84.50;99533.00;1084082;39;20337;-80
2022/08/27 03:04:37;;;;;;;;;;;;;;;20.32;85.00;99540.97;1083608;54;20022;-77
2022/08/27 03:05:41;;;;;;;;;;;;;;;20.26;85.34;99537.25;1083336;54;19970;-78
2022/08/27 03:06:43;;;;;;;;;;;;;;;20.35;85.64;99540.53;1083063;54;20471;-79
2022/08/27 03:07:48;;;;;;;;;;;;;;;20.30;85.12;99542.25;1083045;54;19957;-79
2022/08/27 03:08:49;;;;;;;;;;;;;;;20.29;85.62;99538.72;1082909;54;19947;-80
2022/08/27 03:09:54;;;;;;;;;;;;;;;20.30;85.37;99548.53;1083203;46;19965;-79
2022/08/27 03:10:58;;;;;;;;;;;;;;;20.27;85.59;99538.09;1082967;54;19993;-79
2022/08/27 03:12:03;;;;;;;;;;;;;;;20.17;86.16;99543.19;1083034;54;19946;-78
2022/08/27 03:13:04;;;;;;;;;;;;;;;20.15;86.11;99550.72;1083107;54;19947;-79
2022/08/27 03:14:08;;;;;;;;;;;;;;;20.16;86.61;99544.22;1083369;54;20061;-79
2022/08/27 03:15:11;;;;;;;;;;;;;;;20.18;86.27;99547.56;1083391;39;20376;-79
2022/08/27 03:16:15;;;;;;;;;;;;;;;20.22;85.71;99546.06;1083130;54;19965;-79
2022/08/27 03:18:32;;;;;;;;;;;;;;;20.14;86.48;99549.03;1083367;39;20291;-77
2022/08/27 03:19:34;;;;;;;;;;;;;;;20.13;86.12;99550.09;1083220;54;20445;-78
2022/08/27 03:20:39;;;;;;;;;;;;;;;20.20;86.20;99546.28;1083122;54;19951;-78
2022/08/27 03:21:41;;;;;;;;;;;;;;;20.22;85.92;99544.19;1083323;54;19946;-79
2022/08/27 03:22:44;;;;;;;;;;;;;;;20.19;85.77;99546.50;1083089;54;19946;-79
2022/08/27 03:23:47;;;;;;;;;;;;;;;20.26;85.77;99550.00;1083517;54;19947;-81
2022/08/27 03:24:54;;;;;;;;;;;;;;;20.17;86.12;99548.59;1083037;54;19989;-79
2022/08/27 03:25:57;;;;;;;;;;;;;;;20.10;86.36;99538.66;1083069;54;19993;-80
2022/08/27 03:27:04;;;;;;;;;;;;;;;20.14;86.09;99549.88;1083209;54;19947;-80
2022/08/27 03:28:05;;;;;;;;;;;;;;;20.08;86.08;99542.59;1083019;54;19993;-78
2022/08/27 03:29:09;;;;;;;;;;;;;;;20.05;86.66;99541.16;1082931;54;19969;-77
2022/08/27 03:30:14;;;;;;;;;;;;;;;20.08;86.94;99546.16;1083036;54;20456;-80
2022/08/27 03:31:25;;;;;;;;;;;;;;;20.15;86.65;99545.28;1083194;54;19954;-80
2022/08/27 03:32:26;;;;;;;;;;;;;;;20.04;86.96;99550.34;1083290;47;19939;-79
2022/08/27 03:33:31;;;;;;;;;;;;;;;20.03;87.74;99543.25;1083029;54;19947;-79
2022/08/27 03:34:34;;;;;;;;;;;;;;;20.02;87.76;99547.06;1082878;54;19947;-79
2022/08/27 03:35:38;;;;;;;;;;;;;;;20.01;87.57;99548.09;1083038;54;19950;-80
2022/08/27 03:36:42;;;;;;;;;;;;;;;20.00;87.81;99545.59;1083547;39;20360;-79
2022/08/27 03:37:44;;;;;;;;;;;;;;;19.97;88.34;99544.16;1082689;54;20646;-78
2022/08/27 03:38:47;;;;;;;;;;;;;;;20.01;88.34;99550.81;1083296;54;20467;-79
2022/08/27 03:39:48;;;;;;;;;;;;;;;20.10;87.39;99548.66;1083154;54;20405;-79
2022/08/27 03:40:52;;;;;;;;;;;;;;;20.06;88.03;99540.13;1083441;54;19947;-79
2022/08/27 03:41:55;;;;;;;;;;;;;;;19.98;88.40;99540.41;1083748;54;20472;-80
2022/08/27 03:43:02;;;;;;;;;;;;;;;20.08;88.06;99554.31;1083249;54;19939;-77
2022/08/27 03:44:03;;;;;;;;;;;;;;;20.18;87.32;99555.69;1083497;54;19951;-78
2022/08/27 03:45:08;;;;;;;;;;;;;;;20.03;87.84;99554.13;1083429;54;19957;-80
2022/08/27 03:46:09;;;;;;;;;;;;;;;20.07;88.24;99555.34;1084144;39;20416;-79
2022/08/27 03:47:13;;;;;;;;;;;;;;;20.02;88.27;99551.63;1084073;39;20337;-79
2022/08/27 03:48:14;;;;;;;;;;;;;;;19.99;88.23;99550.19;1083501;54;19953;-79
2022/08/27 03:49:19;;;;;;;;;;;;;;;19.97;88.21;99548.75;1083579;54;19977;-79
2022/08/27 03:50:20;;;;;;;;;;;;;;;20.01;87.81;99553.53;1088412;39;20527;-81
2022/08/27 03:51:38;;;;;;;;;;;;;;;20.07;87.97;99549.94;1085905;54;19962;-79
2022/08/27 03:52:39;;;;;;;;;;;;;;;20.04;88.16;99544.94;1084972;54;19947;-80
2022/08/27 03:53:46;;;;;;;;;;;;;;;20.00;88.38;99543.72;1084980;31;20465;-79
2022/08/27 03:54:47;;;;;;;;;;;;;;;20.08;87.71;99553.47;1083872;54;19939;-78
2022/08/27 03:55:51;;;;;;;;;;;;;;;20.02;87.81;99546.22;1083687;54;19973;-78
2022/08/27 03:56:52;;;;;;;;;;;;;;;20.03;88.00;99543.25;1083879;54;19961;-79
2022/08/27 03:57:56;;;;;;;;;;;;;;;19.93;88.08;99543.75;1083446;54;19938;-78
2022/08/27 03:59:00;;;;;;;;;;;;;;;19.98;87.78;99543.09;1083615;54;19947;-77
2022/08/27 04:00:05;;;;;;;;;;;;;;;19.96;88.03;99542.47;1084164;54;19947;-80
2022/08/27 04:01:07;;;;;;;;;;;;;;;19.93;88.19;99542.94;1083725;54;19939;-78
2022/08/27 04:02:15;;;;;;;;;;;;;;;19.94;88.55;99541.88;1084208;54;19939;-79
2022/08/27 04:03:16;;;;;;;;;;;;;;;19.92;88.32;99546.69;1083811;54;19958;-79
2022/08/27 04:04:22;;;;;;;;;;;;;;;20.01;88.77;99544.53;1084039;54;19939;-81
2022/08/27 04:05:24;;;;;;;;;;;;;;;19.93;88.56;99537.53;1083924;54;19969;-80
2022/08/27 04:06:28;;;;;;;;;;;;;;;19.93;88.64;99542.94;1083733;54;20426;-79
2022/08/27 04:07:31;;;;;;;;;;;;;;;20.02;87.92;99543.50;1083876;54;19965;-79
2022/08/27 04:08:35;;;;;;;;;;;;;;;20.01;87.98;99539.97;1084105;54;20441;-78
2022/08/27 04:09:37;;;;;;;;;;;;;;;20.06;87.43;99544.72;1083968;54;19952;-79
2022/08/27 04:10:41;;;;;;;;;;;;;;;20.10;87.27;99543.22;1084243;54;19947;-83
2022/08/27 04:11:43;;;;;;;;;;;;;;;20.02;87.36;99538.91;1084269;54;20464;-80
2022/08/27 04:12:52;;;;;;;;;;;;;;;20.06;87.66;99545.56;1083848;54;19946;-83
2022/08/27 04:13:54;;;;;;;;;;;;;;;20.05;87.90;99543.88;1084296;54;19946;-79
2022/08/27 04:15:00;;;;;;;;;;;;;;;20.15;87.42;99548.00;1084026;54;19946;-80
2022/08/27 04:16:04;;;;;;;;;;;;;;;20.03;87.61;99542.44;1083900;54;19938;-78
2022/08/27 04:17:14;;;;;;;;;;;;;;;19.99;87.72;99547.47;1083607;54;19981;-78
2022/08/27 04:18:17;;;;;;;;;;;;;;;19.95;88.26;99548.97;1083645;54;19946;-79
2022/08/27 04:19:23;;;;;;;;;;;;;;;19.96;87.92;99542.47;1083626;54;19969;-78
2022/08/27 04:20:24;;;;;;;;;;;;;;;20.02;87.67;99544.34;1083734;54;19953;-80
2022/08/27 04:21:35;;;;;;;;;;;;;;;20.06;87.60;99542.03;1083477;54;19974;-78
2022/08/27 04:22:36;;;;;;;;;;;;;;;20.03;87.64;99553.28;1083739;46;19979;-77
2022/08/27 04:23:40;;;;;;;;;;;;;;;20.07;87.49;99549.94;1083710;54;19951;-78
2022/08/27 04:24:41;;;;;;;;;;;;;;;20.13;87.34;99548.22;1083765;54;19947;-78
2022/08/27 04:25:46;;;;;;;;;;;;;;;20.23;86.94;99551.28;1083697;54;19947;-79
2022/08/27 04:26:48;;;;;;;;;;;;;;;20.27;86.78;99551.66;1084422;39;20364;-79
2022/08/27 04:27:52;;;;;;;;;;;;;;;20.24;86.28;99554.81;1083880;54;20050;-78
2022/08/27 04:28:56;;;;;;;;;;;;;;;20.19;86.43;99551.94;1084220;54;19958;-79
2022/08/27 04:30:03;;;;;;;;;;;;;;;20.14;87.13;99554.47;1084522;31;20412;-78
2022/08/27 04:31:05;;;;;;;;;;;;;;;20.08;87.29;99551.59;1083720;54;20046;-80
2022/08/27 04:32:12;;;;;;;;;;;;;;;20.10;86.96;99548.66;1083929;54;19946;-78
2022/08/27 04:33:13;;;;;;;;;;;;;;;20.15;86.63;99550.72;1084794;31;20554;-78
2022/08/27 04:34:23;;;;;;;;;;;;;;;20.10;86.85;99546.78;1084032;46;19958;-78
2022/08/27 04:35:24;;;;;;;;;;;;;;;20.17;86.53;99548.59;1083880;54;19942;-79
2022/08/27 04:36:35;;;;;;;;;;;;;;;20.16;86.43;99552.38;1084059;54;20421;-77
2022/08/27 04:37:37;;;;;;;;;;;;;;;20.22;86.32;99557.75;1084009;54;20422;-77
2022/08/27 04:38:41;;;;;;;;;;;;;;;20.24;86.28;99558.38;1083109;54;19969;-77
2022/08/27 04:39:42;;;;;;;;;;;;;;;20.28;86.15;99556.03;1083839;54;19938;-79
2022/08/27 04:42:02;;;;;;;;;;;;;;;20.22;86.26;99557.75;1084225;54;19947;-77
2022/08/27 04:43:04;;;;;;;;;;;;;;;20.14;86.54;99549.03;1083828;54;19946;-78
2022/08/27 04:44:18;;;;;;;;;;;;;;;20.15;86.54;99548.00;1084083;54;20015;-78
2022/08/27 04:45:22;;;;;;;;;;;;;;;20.15;86.27;99553.41;1083930;54;20014;-77
2022/08/27 04:46:27;;;;;;;;;;;;;;;20.20;86.09;99556.31;1083977;54;20445;-77
2022/08/27 04:47:31;;;;;;;;;;;;;;;20.15;86.22;99556.13;1083896;54;19951;-77
2022/08/27 04:48:34;;;;;;;;;;;;;;;20.12;86.42;99548.44;1084124;54;19946;-78
2022/08/27 04:49:38;;;;;;;;;;;;;;;20.13;86.12;99553.66;1084306;54;19947;-80
2022/08/27 04:50:41;;;;;;;;;;;;;;;20.25;85.77;99561.91;1084241;54;19946;-79
2022/08/27 04:51:45;;;;;;;;;;;;;;;20.27;85.69;99559.81;1084722;46;19939;-78
2022/08/27 04:52:48;;;;;;;;;;;;;;;20.25;85.93;99557.31;1084640;47;19939;-78
2022/08/27 04:53:52;;;;;;;;;;;;;;;20.24;85.81;99555.66;1083713;54;19946;-77
2022/08/27 04:55:01;;;;;;;;;;;;;;;20.25;85.91;99553.75;1084038;54;19961;-78
2022/08/27 04:56:06;;;;;;;;;;;;;;;20.28;85.78;99561.47;1084296;54;20037;-78
2022/08/27 04:57:08;;;;;;;;;;;;;;;20.35;85.47;99564.16;1083908;54;20026;-77
2022/08/27 04:58:12;;;;;;;;;;;;;;;20.42;84.40;99562.19;1083860;54;20038;-79
2022/08/27 04:59:14;;;;;;;;;;;;;;;20.41;84.42;99555.91;1083986;54;19946;-78
2022/08/27 05:00:29;;;;;;;;;;;;;;;20.49;84.40;99565.69;1084609;31;20445;-79
2022/08/27 05:01:30;;;;;;;;;;;;;;;20.42;84.57;99567.63;1084517;39;20344;-79
2022/08/27 05:02:34;;;;;;;;;;;;;;;20.27;85.08;99571.47;1083637;54;19946;-78
2022/08/27 05:03:35;;;;;;;;;;;;;;;20.32;85.13;99568.09;1084421;39;20324;-78
2022/08/27 05:04:40;;;;;;;;;;;;;;;20.40;84.58;99567.81;1083808;54;19987;-77
2022/08/27 05:05:42;;;;;;;;;;;;;;;20.40;84.05;99570.53;1084091;46;20066;-77
2022/08/27 05:06:47;;;;;;;;;;;;;;;20.38;84.37;99567.25;1083790;54;19965;-77
2022/08/27 05:07:48;;;;;;;;;;;;;;;20.44;84.42;99572.81;1084031;54;19947;-80
2022/08/27 05:08:53;;;;;;;;;;;;;;;20.36;84.70;99572.06;1084224;54;20038;-78
2022/08/27 05:09:55;;;;;;;;;;;;;;;20.37;84.66;99570.16;1084147;54;20046;-80
2022/08/27 05:11:00;;;;;;;;;;;;;;;20.37;84.64;99570.16;1083939;54;19939;-78
2022/08/27 05:12:05;;;;;;;;;;;;;;;20.42;84.49;99568.44;1084561;54;20042;-77
2022/08/27 05:13:07;;;;;;;;;;;;;;;20.36;84.82;99566.63;1084980;54;19951;-78
2022/08/27 05:14:13;;;;;;;;;;;;;;;20.39;84.65;99568.06;1084353;54;19953;-78
2022/08/27 05:15:14;;;;;;;;;;;;;;;20.31;84.48;99568.34;1085123;54;19946;-78
2022/08/27 05:16:22;;;;;;;;;;;;;;;20.36;84.92;99569.34;1084330;54;19950;-79
2022/08/27 05:17:30;;;;;;;;;;;;;;;20.46;83.96;99565.28;1085082;39;20396;-78
2022/08/27 05:18:32;;;;;;;;;;;;;;;20.51;83.81;99565.44;1084281;54;19963;-78
2022/08/27 05:19:36;;;;;;;;;;;;;;;20.48;84.24;99565.91;1084232;54;19969;-78
2022/08/27 05:20:41;;;;;;;;;;;;;;;20.44;84.12;99564.69;1083896;54;19977;-78
2022/08/27 05:21:47;;;;;;;;;;;;;;;20.30;84.33;99567.53;1084901;54;19946;-78
2022/08/27 05:22:48;;;;;;;;;;;;;;;20.23;85.71;99564.84;1084234;54;20547;-78
2022/08/27 05:23:52;;;;;;;;;;;;;;;20.33;85.39;99564.34;1083961;54;19981;-78
2022/08/27 05:24:56;;;;;;;;;;;;;;;20.36;84.60;99569.34;1084361;54;20527;-79
2022/08/27 05:25:58;;;;;;;;;;;;;;;20.28;84.97;99566.91;1084183;54;19951;-77
2022/08/27 05:27:02;;;;;;;;;;;;;;;20.30;85.03;99558.53;1084058;54;19981;-78
2022/08/27 05:28:03;;;;;;;;;;;;;;;20.38;84.46;99561.81;1083725;54;20041;-78
2022/08/27 05:29:07;;;;;;;;;;;;;;;20.47;84.33;99558.81;1083949;54;19946;-78
2022/08/27 05:30:09;;;;;;;;;;;;;;;20.49;83.88;99562.16;1083828;54;19962;-79
2022/08/27 05:31:14;;;;;;;;;;;;;;;20.51;83.77;99565.44;1083605;54;19947;-79
2022/08/27 05:32:17;;;;;;;;;;;;;;;20.50;83.46;99559.19;1084520;47;19946;-77
2022/08/27 05:33:22;;;;;;;;;;;;;;;20.57;83.41;99559.97;1084547;54;19951;-77
2022/08/27 05:34:24;;;;;;;;;;;;;;;20.61;83.33;99560.34;1083942;54;19973;-78
2022/08/27 05:35:28;;;;;;;;;;;;;;;20.59;83.62;99562.47;1084728;54;19969;-76
2022/08/27 05:36:30;;;;;;;;;;;;;;;20.64;83.11;99553.66;1085286;39;20354;-77
2022/08/27 05:37:35;;;;;;;;;;;;;;;20.62;83.14;99559.31;1084318;54;19954;-78
2022/08/27 05:38:36;;;;;;;;;;;;;;;20.66;82.97;99563.25;1084379;54;19953;-77
2022/08/27 05:39:40;;;;;;;;;;;;;;;20.64;83.07;99554.47;1083592;39;20376;-77
2022/08/27 05:40:42;;;;;;;;;;;;;;;20.63;83.14;99558.25;1083759;54;19993;-78
2022/08/27 05:41:46;;;;;;;;;;;;;;;20.66;83.23;99551.53;1084240;54;19946;-77
2022/08/27 05:42:47;;;;;;;;;;;;;;;20.66;82.85;99552.38;1084245;54;19950;-78
2022/08/27 05:43:52;;;;;;;;;;;;;;;20.67;82.70;99558.63;1083436;54;19950;-77
2022/08/27 05:44:53;;;;;;;;;;;;;;;20.65;82.72;99553.44;1084146;54;19973;-78
2022/08/27 05:45:57;;;;;;;;;;;;;;;20.63;82.84;99563.69;1084342;54;19950;-79
2022/08/27 05:47:01;;;;;;;;;;;;;;;20.67;82.77;99562.19;1084608;54;19946;-78
2022/08/27 05:48:24;;;;;;;;;;;;;;;20.63;82.54;99552.81;1085005;39;20376;-78
2022/08/27 05:49:27;;;;;;;;;;;;;;;20.66;82.36;99559.69;1083998;54;19950;-78
2022/08/27 05:50:31;;;;;;;;;;;;;;;20.64;82.69;99559.91;1084865;54;19973;-78
2022/08/27 05:51:37;;;;;;;;;;;;;;;20.63;82.61;99558.25;1083981;54;20034;-79
2022/08/27 05:52:41;;;;;;;;;;;;;;;20.70;82.49;99556.28;1084066;54;19950;-78
2022/08/27 05:53:45;;;;;;;;;;;;;;;20.76;82.19;99556.50;1084006;54;19947;-80
2022/08/27 05:54:49;;;;;;;;;;;;;;;20.70;82.32;99552.75;1084610;54;20002;-78
2022/08/27 05:55:51;;;;;;;;;;;;;;;20.72;82.34;99548.75;1083747;54;19950;-78
2022/08/27 05:56:56;;;;;;;;;;;;;;;20.77;82.32;99555.47;1083882;54;19961;-79
2022/08/27 05:57:57;;;;;;;;;;;;;;;20.81;82.09;99553.94;1083523;54;19969;-79
2022/08/27 06:03:16;;;;;;;;;;;;;;;20.78;81.81;99557.13;1087742;54;19961;-80
2022/08/27 06:04:21;;;;;;;;;;;;;;;20.60;82.20;99558.69;1087843;54;19965;-80
2022/08/27 06:05:25;;;;;;;;;;;;;;;20.69;82.51;99557.34;1088185;39;20600;-81
2022/08/27 06:06:26;;;;;;;;;;;;;;;20.66;82.20;99557.81;1087758;54;19942;-80
2022/08/27 06:07:30;;;;;;;;;;;;;;;20.73;82.38;99558.59;1087765;54;19943;-81
2022/08/27 06:08:32;;;;;;;;;;;;;;;20.73;82.43;99555.88;1087828;54;19943;-80
2022/08/27 06:09:37;;;;;;;;;;;;;;;20.71;81.92;99557.97;1087795;54;19942;-80
2022/08/27 06:10:39;;;;;;;;;;;;;;;20.79;81.95;99561.47;1087698;54;19950;-80
2022/08/27 06:11:44;;;;;;;;;;;;;;;20.84;81.93;99567.06;1087633;54;19991;-81
2022/08/27 06:12:45;;;;;;;;;;;;;;;20.86;81.46;99552.22;1087789;54;19998;-80